createdAt,value
2022-08-07T00:00:36.577Z,14.00
2022-08-07T00:03:47.281Z,15.25
2022-08-07T00:06:52.329Z,13.33
2022-08-07T00:10:19.274Z,14.00
2022-08-07T00:13:23.782Z,14.00
2022-08-07T00:16:29.445Z,14.00
2022-08-07T00:19:59.540Z,14.60
2022-08-07T00:22:57.116Z,16.40
2022-08-07T00:26:13.300Z,14.60
2022-08-07T00:29:31.429Z,14.33
2022-08-07T00:32:35.525Z,14.20
2022-08-07T00:35:38.942Z,13.60
2022-08-07T00:38:42.836Z,16.60
2022-08-07T00:42:01.320Z,18.00
2022-08-07T00:45:07.532Z,15.00
2022-08-07T00:48:19.593Z,13.00
2022-08-07T00:51:57.141Z,16.00
2022-08-07T00:54:58.478Z,14.40
2022-08-07T00:58:04.268Z,13.20
2022-08-07T01:01:08.411Z,15.00
2022-08-07T01:04:11.902Z,15.00
2022-08-07T01:07:31.168Z,13.40
2022-08-07T01:10:35.043Z,16.00
2022-08-07T01:13:40.381Z,15.00
2022-08-07T01:17:00.284Z,16.00
2022-08-07T01:20:10.275Z,14.25
2022-08-07T01:23:34.718Z,16.00
2022-08-07T01:26:44.606Z,13.00
2022-08-07T01:29:56.365Z,16.60
2022-08-07T01:33:00.519Z,16.00
2022-08-07T01:36:10.839Z,14.60
2022-08-07T01:39:21.580Z,15.00
2022-08-07T01:42:58.451Z,14.25
2022-08-07T01:46:03.956Z,13.20
2022-08-07T01:49:09.543Z,14.00
2022-08-07T01:52:16.018Z,17.00
2022-08-07T01:55:25.296Z,14.00
2022-08-07T01:58:40.154Z,13.60
2022-08-07T02:02:02.464Z,14.20
2022-08-07T02:05:16.031Z,16.00
2022-08-07T02:08:41.777Z,16.00
2022-08-07T02:12:04.213Z,12.00
2022-08-07T02:15:13.708Z,17.00
2022-08-07T02:18:20.638Z,17.00
2022-08-07T02:21:25.953Z,19.00
2022-08-07T02:24:30.864Z,18.80
2022-08-07T02:27:37.187Z,19.00
2022-08-07T02:30:46.126Z,18.00
2022-08-07T02:34:01.683Z,17.00
2022-08-07T02:37:15.208Z,16.75
2022-08-07T02:40:30.432Z,16.00
2022-08-07T02:43:47.639Z,17.80
2022-08-07T02:46:55.853Z,5.50
2022-08-07T02:50:00.999Z,16.00
2022-08-07T02:53:13.728Z,15.75
2022-08-07T02:56:21.092Z,17.00
2022-08-07T02:59:28.785Z,19.40
2022-08-07T03:02:41.873Z,17.20
2022-08-07T03:05:59.851Z,14.80
2022-08-07T03:09:04.786Z,16.00
2022-08-07T03:12:16.130Z,16.60
2022-08-07T03:15:55.677Z,16.40
2022-08-07T03:19:00.836Z,15.60
2022-08-07T03:22:06.354Z,18.00
2022-08-07T03:25:11.607Z,17.00
2022-08-07T03:28:38.499Z,19.00
2022-08-07T03:31:49.973Z,17.25
2022-08-07T03:35:00.828Z,18.00
2022-08-07T03:38:29.686Z,19.00
2022-08-07T03:41:42.249Z,18.00
2022-08-07T03:44:57.872Z,19.50
2022-08-07T03:48:05.095Z,19.00
2022-08-07T03:51:14.825Z,20.00
2022-08-07T03:54:36.538Z,18.20
2022-08-07T03:58:32.542Z,19.00
2022-08-07T04:01:14.894Z,17.60
2022-08-07T04:04:22.973Z,18.00
2022-08-07T04:07:41.636Z,18.00
2022-08-07T04:10:54.090Z,17.33
2022-08-07T04:14:37.333Z,18.80
2022-08-07T04:18:31.917Z,17.20
2022-08-07T04:21:09.258Z,17.00
2022-08-07T04:24:30.791Z,13.00
2022-08-07T04:27:43.893Z,17.00
2022-08-07T04:30:57.112Z,18.40
2022-08-07T04:34:16.762Z,19.25
2022-08-07T04:37:24.200Z,15.50
2022-08-07T04:40:32.340Z,16.80
2022-08-07T04:44:11.784Z,19.40
2022-08-07T04:47:11.101Z,17.00
2022-08-07T04:50:40.683Z,19.00
2022-08-07T04:54:05.322Z,16.75
2022-08-07T04:58:12.382Z,18.60
2022-08-07T05:00:51.800Z,17.50
2022-08-07T05:04:08.892Z,20.00
2022-08-07T05:07:36.448Z,16.00
2022-08-07T05:10:48.427Z,19.00
2022-08-07T05:14:52.380Z,17.00
2022-08-07T05:17:52.931Z,16.40
2022-08-07T05:20:50.237Z,20.00
2022-08-07T05:23:59.644Z,17.50
2022-08-07T05:27:06.755Z,17.00
2022-08-07T05:30:32.470Z,15.67
2022-08-07T05:33:40.059Z,18.60
2022-08-07T05:36:56.832Z,15.40
2022-08-07T05:40:20.463Z,16.00
2022-08-07T05:43:49.798Z,15.80
2022-08-07T05:46:52.174Z,20.80
2022-08-07T05:50:00.963Z,9.75
2022-08-07T05:53:05.588Z,15.75
2022-08-07T05:56:30.772Z,14.00
2022-08-07T05:59:55.938Z,17.40
2022-08-07T06:03:08.123Z,13.50
2022-08-07T06:06:17.377Z,13.00
2022-08-07T06:09:45.011Z,12.00
2022-08-07T06:12:48.129Z,12.75
2022-08-07T06:15:55.678Z,16.00
2022-08-07T06:19:06.472Z,15.00
2022-08-07T06:22:22.779Z,17.60
2022-08-07T06:25:38.941Z,17.20
2022-08-07T06:28:50.529Z,14.60
2022-08-07T06:31:58.998Z,13.50
2022-08-07T06:35:10.519Z,15.00
2022-08-07T06:38:21.815Z,14.00
2022-08-07T06:42:00.995Z,16.00
2022-08-07T06:44:58.049Z,14.00
2022-08-07T06:48:03.941Z,14.60
2022-08-07T06:51:31.310Z,15.00
2022-08-07T06:55:34.198Z,15.50
2022-08-07T06:58:16.696Z,14.20
2022-08-07T07:01:43.671Z,13.00
2022-08-07T07:04:55.026Z,16.60
2022-08-07T07:08:03.862Z,14.00
2022-08-07T07:11:13.553Z,14.60
2022-08-07T07:14:38.945Z,12.60
2022-08-07T07:17:52.293Z,18.40
2022-08-07T07:21:03.935Z,15.00
2022-08-07T07:24:12.599Z,14.50
2022-08-07T07:27:18.247Z,15.00
2022-08-07T07:30:37.904Z,17.00
2022-08-07T07:33:44.556Z,11.40
2022-08-07T07:37:14.263Z,18.00
2022-08-07T07:40:26.302Z,15.50
2022-08-07T07:43:47.982Z,15.60
2022-08-07T07:47:13.968Z,13.00
2022-08-07T07:50:33.398Z,14.50
2022-08-07T07:53:51.738Z,14.25
2022-08-07T07:56:58.285Z,14.00
2022-08-07T08:00:03.383Z,13.00
2022-08-07T08:04:09.797Z,15.00
2022-08-07T08:06:52.009Z,11.00
2022-08-07T08:10:05.548Z,11.00
2022-08-07T08:13:15.123Z,12.00
2022-08-07T08:16:25.208Z,14.00
2022-08-07T08:20:18.632Z,13.00
2022-08-07T08:23:27.898Z,10.40
2022-08-07T08:26:50.732Z,11.20
2022-08-07T08:29:57.816Z,10.00
2022-08-07T08:33:10.266Z,12.00
2022-08-07T08:36:25.623Z,13.40
2022-08-07T08:39:39.860Z,13.00
2022-08-07T08:43:10.303Z,10.00
2022-08-07T08:46:22.196Z,11.25
2022-08-07T08:49:46.563Z,10.75
2022-08-07T08:53:07.718Z,10.60
2022-08-07T08:56:16.971Z,9.25
2022-08-07T08:59:42.186Z,6.00
2022-08-07T09:02:59.938Z,8.25
2022-08-07T09:06:11.460Z,9.00
2022-08-07T09:09:36.826Z,7.00
2022-08-07T09:12:53.250Z,9.00
2022-08-07T09:16:21.669Z,6.80
2022-08-07T09:19:53.644Z,7.00
2022-08-07T09:24:32.665Z,6.80
2022-08-07T09:26:40.835Z,7.00
2022-08-07T09:30:06.432Z,6.00
2022-08-07T09:33:53.244Z,8.00
2022-08-07T09:37:02.979Z,7.75
2022-08-07T09:40:16.308Z,7.00
2022-08-07T09:44:03.565Z,7.00
2022-08-07T09:47:51.239Z,8.25
2022-08-07T09:50:51.499Z,7.80
2022-08-07T09:54:02.690Z,9.40
2022-08-07T09:57:30.222Z,7.50
2022-08-07T10:00:52.001Z,8.80
2022-08-07T10:04:16.013Z,6.60
2022-08-07T10:07:58.725Z,7.40
2022-08-07T10:12:00.055Z,7.60
2022-08-07T10:15:15.472Z,6.00
2022-08-07T10:18:33.572Z,6.00
2022-08-07T10:22:14.198Z,9.00
2022-08-07T10:25:42.319Z,5.00
2022-08-07T10:29:00.055Z,6.80
2022-08-07T10:32:36.830Z,7.00
2022-08-07T10:36:12.525Z,6.00
2022-08-07T10:39:41.440Z,5.80
2022-08-07T10:43:03.174Z,4.50
2022-08-07T10:46:14.397Z,5.00
2022-08-07T10:49:49.412Z,3.60
2022-08-07T10:53:05.281Z,8.00
2022-08-07T10:56:31.588Z,6.20
2022-08-07T10:59:48.422Z,5.00
2022-08-07T11:03:01.272Z,7.00
2022-08-07T11:06:15.748Z,6.75
2022-08-07T11:10:10.332Z,8.00
2022-08-07T11:13:07.624Z,7.25
2022-08-07T11:16:37.590Z,8.00
2022-08-07T11:19:52.263Z,6.40
2022-08-07T11:23:02.938Z,6.00
2022-08-07T11:26:13.332Z,6.00
2022-08-07T11:29:41.022Z,6.00
2022-08-07T11:32:56.094Z,7.00
2022-08-07T11:36:12.512Z,8.00
2022-08-07T11:40:00.771Z,7.40
2022-08-07T11:43:15.437Z,7.00
2022-08-07T11:46:36.783Z,8.00
2022-08-07T11:50:30.348Z,10.60
2022-08-07T11:53:43.412Z,9.00
2022-08-07T11:57:18.895Z,6.00
2022-08-07T12:00:32.348Z,8.00
2022-08-07T12:03:58.346Z,7.00
2022-08-07T12:07:20.215Z,10.00
2022-08-07T12:10:41.967Z,7.00
2022-08-07T12:13:51.883Z,9.20
2022-08-07T12:17:02.188Z,10.00
2022-08-07T12:20:29.757Z,7.33
2022-08-07T12:24:06.828Z,8.00
2022-08-07T12:27:16.212Z,8.00
2022-08-07T12:30:23.456Z,6.00
2022-08-07T12:34:00.735Z,6.00
2022-08-07T12:36:59.212Z,5.60
2022-08-07T12:40:04.854Z,5.00
2022-08-07T12:44:02.221Z,5.00
2022-08-07T12:46:52.145Z,5.50
2022-08-07T12:50:38.273Z,7.60
2022-08-07T12:54:03.267Z,3.00
2022-08-07T12:57:09.426Z,5.00
2022-08-07T13:00:20.875Z,4.60
2022-08-07T13:04:05.536Z,4.60
2022-08-07T13:08:14.553Z,4.40
2022-08-07T13:11:16.387Z,6.00
2022-08-07T13:14:33.509Z,2.00
2022-08-07T13:18:26.043Z,7.00
2022-08-07T13:21:37.599Z,5.00
2022-08-07T13:25:00.176Z,5.40
2022-08-07T13:28:18.410Z,6.00
2022-08-07T13:31:32.121Z,5.00
2022-08-07T13:34:56.472Z,6.00
2022-08-07T13:38:15.069Z,4.00
2022-08-07T13:41:33.322Z,6.00
2022-08-07T13:44:41.255Z,5.40
2022-08-07T13:48:05.382Z,5.00
2022-08-07T13:51:27.705Z,4.00
2022-08-07T13:54:41.774Z,7.00
2022-08-07T13:58:20.637Z,5.80
2022-08-07T14:01:51.215Z,7.00
2022-08-07T14:05:03.721Z,8.50
2022-08-07T14:08:10.278Z,8.00
2022-08-07T14:11:17.652Z,7.00
2022-08-07T14:14:30.784Z,7.40
2022-08-07T14:18:15.512Z,6.00
2022-08-07T14:21:21.237Z,9.00
2022-08-07T14:24:41.460Z,3.00
2022-08-07T14:28:10.556Z,4.00
2022-08-07T14:31:12.904Z,7.00
2022-08-07T14:34:21.967Z,6.50
2022-08-07T14:37:38.867Z,6.00
2022-08-07T14:40:49.386Z,5.00
2022-08-07T14:44:02.044Z,5.60
2022-08-07T14:47:16.400Z,5.00
2022-08-07T14:50:24.463Z,5.80
2022-08-07T14:54:03.591Z,5.00
2022-08-07T14:56:58.762Z,6.00
2022-08-07T15:00:08.738Z,5.00
2022-08-07T15:03:18.888Z,5.00
2022-08-07T15:06:25.912Z,4.60
2022-08-07T15:09:57.475Z,5.50
2022-08-07T15:13:11.616Z,4.00
2022-08-07T15:16:20.122Z,5.50
2022-08-07T15:20:16.174Z,6.00
2022-08-07T15:23:15.091Z,5.75
2022-08-07T15:26:37.015Z,5.00
2022-08-07T15:33:19.150Z,5.40
2022-08-07T15:39:57.761Z,6.00
2022-08-07T15:43:53.619Z,6.00
2022-08-07T15:46:47.354Z,6.25
2022-08-07T15:50:05.125Z,5.00
2022-08-07T15:53:13.752Z,6.00
2022-08-07T15:56:18.680Z,6.00
2022-08-07T15:59:39.475Z,5.80
2022-08-07T16:02:49.782Z,6.00
2022-08-07T16:05:54.854Z,6.00
2022-08-07T16:09:03.329Z,5.40
2022-08-07T16:12:28.764Z,6.00
2022-08-07T16:15:57.590Z,5.00
2022-08-07T16:19:42.624Z,8.00
2022-08-07T16:23:05.479Z,7.00
2022-08-07T16:26:30.722Z,5.00
2022-08-07T16:30:28.933Z,8.00
2022-08-07T16:34:02.756Z,6.00
2022-08-07T16:38:06.317Z,8.00
2022-08-07T16:41:27.209Z,6.20
2022-08-07T16:45:14.125Z,7.00
2022-08-07T16:50:20.856Z,7.00
2022-08-07T16:52:51.468Z,10.40
2022-08-07T16:55:54.490Z,7.80
2022-08-07T16:59:14.680Z,8.00
2022-08-07T17:03:05.982Z,9.00
2022-08-07T17:06:31.381Z,8.00
2022-08-07T17:10:06.791Z,6.00
2022-08-07T17:14:02.167Z,11.80
2022-08-07T17:17:10.198Z,10.00
2022-08-07T17:20:29.996Z,8.75
2022-08-07T17:23:44.273Z,6.50
2022-08-07T17:26:57.243Z,11.20
2022-08-07T17:30:14.677Z,8.00
2022-08-07T17:34:08.891Z,11.00
2022-08-07T17:36:59.850Z,9.00
2022-08-07T17:40:30.555Z,6.80
2022-08-07T17:44:03.221Z,10.00
2022-08-07T17:47:05.561Z,9.75
2022-08-07T17:50:19.551Z,13.00
2022-08-07T17:54:01.201Z,17.00
2022-08-07T17:57:02.817Z,11.40
2022-08-07T18:00:33.374Z,15.00
2022-08-07T18:04:03.743Z,8.60
2022-08-07T18:07:34.442Z,10.00
2022-08-07T18:12:07.257Z,8.40
2022-08-07T18:14:19.910Z,11.40
2022-08-07T18:18:47.598Z,23.60
2022-08-07T18:21:30.110Z,37.00
2022-08-07T18:24:34.696Z,19.00
2022-08-07T18:28:00.466Z,22.40
2022-08-07T18:31:18.340Z,35.00
2022-08-07T18:35:00.547Z,53.00
2022-08-07T18:38:58.182Z,44.00
2022-08-07T18:41:55.910Z,29.80
2022-08-07T18:45:43.415Z,19.00
2022-08-07T18:50:29.986Z,25.50
2022-08-07T18:52:38.899Z,29.00
2022-08-07T18:56:03.042Z,28.60
2022-08-07T18:59:47.609Z,33.60
2022-08-07T19:03:16.069Z,22.60
2022-08-07T19:06:33.735Z,22.40
2022-08-07T19:09:56.258Z,18.50
2022-08-07T19:13:10.212Z,17.00
2022-08-07T19:16:42.939Z,16.00
2022-08-07T19:19:57.427Z,14.75
2022-08-07T19:23:18.924Z,14.00
2022-08-07T19:26:29.377Z,11.40
2022-08-07T19:31:03.860Z,15.00
2022-08-07T19:33:08.256Z,12.40
2022-08-07T19:36:27.996Z,11.00
2022-08-07T19:39:56.143Z,9.00
2022-08-07T19:42:59.064Z,15.00
2022-08-07T19:46:09.474Z,10.00
2022-08-07T19:49:17.904Z,12.00
2022-08-07T19:52:42.039Z,10.25
2022-08-07T19:55:57.604Z,11.60
2022-08-07T19:59:03.655Z,12.50
2022-08-07T20:02:19.026Z,12.00
2022-08-07T20:05:27.801Z,13.00
2022-08-07T20:08:34.886Z,12.00
2022-08-07T20:12:22.057Z,14.00
2022-08-07T20:15:18.782Z,12.00
2022-08-07T20:18:32.313Z,13.75
2022-08-07T20:21:41.839Z,15.00
2022-08-07T20:24:55.867Z,12.60
2022-08-07T20:28:10.056Z,15.00
2022-08-07T20:31:23.127Z,13.00
2022-08-07T20:34:49.363Z,13.20
2022-08-07T20:37:59.810Z,13.20
2022-08-07T20:41:08.095Z,1.00
2022-08-07T20:44:16.643Z,10.40
2022-08-07T20:47:25.916Z,12.80
2022-08-07T20:50:49.412Z,12.00
2022-08-07T20:54:02.966Z,16.00
2022-08-07T20:57:10.966Z,12.00
2022-08-07T21:00:18.891Z,15.40
2022-08-07T21:03:25.960Z,12.25
2022-08-07T21:06:31.421Z,16.00
2022-08-07T21:09:52.711Z,12.40
2022-08-07T21:13:04.459Z,11.50
2022-08-07T21:16:10.192Z,14.00
2022-08-07T21:19:17.173Z,15.00
2022-08-07T21:22:28.476Z,16.60
2022-08-07T21:25:42.590Z,14.20
2022-08-07T21:28:53.129Z,15.00
2022-08-07T21:32:48.460Z,15.00
2022-08-07T21:36:04.849Z,12.20
2022-08-07T21:39:45.956Z,12.60
2022-08-07T21:42:46.021Z,9.00
2022-08-07T21:46:10.269Z,14.60
2022-08-07T21:49:28.316Z,11.00
2022-08-07T21:52:45.144Z,8.60
2022-08-07T21:55:57.121Z,13.00
2022-08-07T21:59:08.376Z,13.00
2022-08-07T22:02:18.683Z,13.00
2022-08-07T22:05:45.942Z,14.60
2022-08-07T22:08:56.998Z,11.00
2022-08-07T22:12:08.495Z,12.00
2022-08-07T22:16:43.805Z,15.00
2022-08-07T22:18:49.247Z,12.75
2022-08-07T22:22:28.205Z,12.25
2022-08-07T22:25:36.782Z,13.00
2022-08-07T22:28:48.475Z,13.00
2022-08-07T22:32:05.879Z,11.00
2022-08-07T22:35:11.838Z,14.00
2022-08-07T22:38:26.590Z,13.00
2022-08-07T22:42:03.975Z,13.00
2022-08-07T22:45:03.426Z,15.40
2022-08-07T22:48:54.838Z,13.50
2022-08-07T22:52:06.984Z,13.00
2022-08-07T22:55:39.139Z,17.00
2022-08-07T22:59:11.536Z,16.75
2022-08-07T23:02:31.221Z,16.00
2022-08-07T23:06:07.642Z,12.00
2022-08-07T23:10:01.196Z,18.00
2022-08-07T23:13:08.531Z,15.00
2022-08-07T23:16:48.527Z,17.40
2022-08-07T23:20:51.373Z,13.60
2022-08-07T23:24:21.089Z,15.40
2022-08-07T23:28:22.073Z,14.00
2022-08-07T23:32:49.124Z,15.40
2022-08-07T23:35:08.607Z,15.80
2022-08-07T23:38:36.499Z,15.00
2022-08-07T23:42:04.262Z,12.75
2022-08-07T23:45:33.173Z,14.00
2022-08-07T23:49:13.694Z,15.00
2022-08-07T23:53:17.043Z,15.00
2022-08-07T23:56:00.007Z,15.60
